Time;durP1;ratioP1;P1;durP2;ratioP2;P2;SDS_P1;SDS_P2;PMS_P1;PMS_P2;Temp;Humidity;BMP_temperature;BMP_pressure;BME280_temperature;BME280_humidity;BME280_pressure;Samples;Min_cycle;Max_cycle;Signal;HPM_P1;HPM_P2
2021/01/02 00:01:03;;;;;;;48.42;29.38;;;5.00;68.30;;;;;;5033886;28;20387;-73
2021/01/02 00:03:55;;;;;;;51.25;29.58;;;5.00;67.90;;;;;;5016395;28;20407;-72
2021/01/02 00:06:27;;;;;;;44.72;27.08;;;5.00;67.70;;;;;;5015910;28;20895;-72
2021/01/02 00:09:03;;;;;;;38.42;24.92;;;5.10;66.50;;;;;;5034169;28;20463;-73
2021/01/02 00:11:53;;;;;;;40.53;24.40;;;5.30;62.70;;;;;;5016450;28;20513;-72
2021/01/02 00:14:28;;;;;;;36.72;23.60;;;5.30;60.40;;;;;;5034425;28;20409;-74
2021/01/02 00:17:20;;;;;;;39.33;23.67;;;5.30;59.60;;;;;;5035053;28;20961;-72
2021/01/02 00:20:06;;;;;;;35.25;23.35;;;5.20;60.00;;;;;;5034452;28;20734;-71
2021/01/02 00:22:46;;;;;;;41.47;25.70;;;5.20;59.30;;;;;;5034482;28;20403;-71
2021/01/02 00:25:16;;;;;;;43.63;26.95;;;5.10;60.50;;;;;;5035278;28;20358;-72
2021/01/02 00:28:03;;;;;;;43.25;26.50;;;5.00;62.30;;;;;;5034571;28;20379;-75
2021/01/02 00:30:46;;;;;;;45.90;26.13;;;5.00;63.70;;;;;;5034544;28;20468;-73
2021/01/02 00:33:18;;;;;;;40.60;25.25;;;5.10;62.50;;;;;;5034387;28;20383;-74
2021/01/02 00:35:46;;;;;;;44.22;26.55;;;5.10;62.40;;;;;;5034929;28;20386;-73
2021/01/02 00:38:14;;;;;;;44.40;26.95;;;5.00;63.40;;;;;;5034160;28;20441;-73
2021/01/02 00:40:40;;;;;;;47.03;27.63;;;5.00;63.70;;;;;;5034050;28;20398;-72
2021/01/02 00:43:06;;;;;;;49.28;28.10;;;5.00;64.60;;;;;;5034155;28;20403;-73
2021/01/02 00:45:32;;;;;;;44.57;26.90;;;5.10;63.60;;;;;;5033879;28;20442;-72
2021/01/02 00:48:00;;;;;;;46.53;27.25;;;5.10;63.10;;;;;;5033733;28;20455;-73
2021/01/02 00:50:27;;;;;;;45.35;26.70;;;5.00;62.70;;;;;;5033434;28;20379;-71
2021/01/02 00:53:11;;;;;;;43.03;25.23;;;5.00;63.00;;;;;;5033678;28;20433;-71
2021/01/02 00:56:10;;;;;;;43.85;26.40;;;5.00;62.40;;;;;;5033836;28;20454;-73
2021/01/02 00:59:11;;;;;;;43.15;25.73;;;5.10;62.00;;;;;;5015142;28;20419;-72
2021/01/02 01:02:04;;;;;;;41.53;25.40;;;5.10;62.10;;;;;;4932172;29;20965;-72
2021/01/02 01:05:06;;;;;;;34.97;22.87;;;5.00;61.60;;;;;;5001016;28;20529;-71
2021/01/02 01:07:34;;;;;;;31.52;21.05;;;5.20;59.10;;;;;;5030662;28;20429;-73
2021/01/02 01:10:04;;;;;;;34.90;21.33;;;5.20;55.80;;;;;;5030066;28;20387;-72
2021/01/02 01:12:38;;;;;;;35.83;21.13;;;5.00;56.70;;;;;;5030473;28;20379;-72
2021/01/02 01:15:05;;;;;;;31.90;19.75;;;5.20;56.60;;;;;;5030410;28;20371;-71
2021/01/02 01:17:39;;;;;;;33.08;20.42;;;5.20;55.80;;;;;;5030638;28;20829;-72
2021/01/02 01:20:12;;;;;;;31.00;20.33;;;5.10;55.60;;;;;;5034113;28;20371;-71
2021/01/02 01:22:42;;;;;;;33.05;20.90;;;5.10;56.00;;;;;;5016936;28;20407;-73
2021/01/02 01:25:38;;;;;;;32.38;20.10;;;5.10;56.90;;;;;;5034524;28;20733;-72
2021/01/02 01:28:08;;;;;;;32.80;19.47;;;5.00;56.50;;;;;;5019391;28;20886;-73
2021/01/02 01:30:39;;;;;;;33.00;20.17;;;5.00;55.60;;;;;;5034152;28;20398;-74
2021/01/02 01:33:04;;;;;;;31.33;20.17;;;5.00;56.60;;;;;;5034159;28;20383;-73
2021/01/02 01:35:30;;;;;;;34.83;20.67;;;5.00;56.50;;;;;;5034126;28;20886;-71
2021/01/02 01:37:57;;;;;;;32.40;20.13;;;5.00;56.40;;;;;;5034123;28;20777;-72
2021/01/02 01:40:24;;;;;;;31.52;19.10;;;5.10;56.20;;;;;;5034014;28;20391;-72
2021/01/02 01:43:04;;;;;;;32.72;19.10;;;5.00;55.90;;;;;;5034065;28;20407;-73
2021/01/02 01:45:39;;;;;;;33.95;20.70;;;5.00;56.30;;;;;;5034088;28;20375;-73
2021/01/02 01:48:07;;;;;;;33.38;20.83;;;5.00;56.00;;;;;;5033728;28;20398;-73
2021/01/02 01:50:44;;;;;;;34.35;20.30;;;5.00;56.20;;;;;;5033798;28;20387;-72
2021/01/02 01:53:29;;;;;;;35.40;20.50;;;5.00;56.00;;;;;;5033834;28;20410;-72
2021/01/02 01:55:55;;;;;;;30.88;20.00;;;4.90;56.80;;;;;;5033829;28;20390;-72
2021/01/02 01:58:37;;;;;;;32.15;19.40;;;5.00;54.80;;;;;;5033920;28;20391;-73
2021/01/02 02:01:04;;;;;;;32.97;20.20;;;4.90;54.60;;;;;;5033665;28;20391;-73
2021/01/02 02:03:46;;;;;;;33.08;20.85;;;4.90;55.00;;;;;;5033907;28;20389;-73
2021/01/02 02:06:30;;;;;;;30.75;20.17;;;4.90;55.30;;;;;;5033772;28;20788;-72
2021/01/02 02:09:00;;;;;;;35.38;20.98;;;4.90;55.10;;;;;;5033502;28;20383;-73
2021/01/02 02:11:34;;;;;;;33.67;20.80;;;4.90;55.40;;;;;;5033676;28;20391;-72
2021/01/02 02:14:10;;;;;;;33.88;20.88;;;4.80;56.20;;;;;;5033397;28;20473;-72
2021/01/02 02:16:44;;;;;;;35.47;21.10;;;4.80;55.90;;;;;;5033429;28;20991;-71
2021/01/02 02:19:46;;;;;;;33.47;21.48;;;4.80;56.30;;;;;;5033007;28;20391;-72
2021/01/02 02:22:16;;;;;;;32.50;20.63;;;4.90;55.00;;;;;;5033140;28;20883;-72
2021/01/02 02:24:47;;;;;;;37.30;21.88;;;4.90;54.50;;;;;;5033236;28;20823;-72
2021/01/02 02:27:14;;;;;;;35.95;21.55;;;4.80;55.90;;;;;;5033084;28;20387;-73
2021/01/02 02:30:02;;;;;;;34.45;22.35;;;4.70;56.80;;;;;;5031218;28;20423;-72
2021/01/02 02:32:34;;;;;;;38.15;21.88;;;4.70;57.00;;;;;;5026132;28;20478;-71
2021/01/02 02:35:03;;;;;;;38.17;23.02;;;4.70;57.20;;;;;;5033870;28;20397;-72
2021/01/02 02:37:30;;;;;;;39.40;23.70;;;4.70;57.30;;;;;;5032991;28;20962;-72
2021/01/02 02:39:55;;;;;;;36.15;22.90;;;4.60;57.40;;;;;;5032841;28;20391;-72
2021/01/02 02:42:22;;;;;;;39.67;23.10;;;4.70;56.90;;;;;;5032921;28;20409;-72
2021/01/02 02:44:51;;;;;;;37.25;23.48;;;4.70;57.00;;;;;;5033003;28;20414;-72
2021/01/02 02:47:18;;;;;;;35.97;22.92;;;4.70;56.30;;;;;;5032867;28;20474;-72
2021/01/02 02:49:50;;;;;;;40.78;24.15;;;4.70;56.60;;;;;;5032817;28;20877;-71
2021/01/02 02:52:38;;;;;;;38.88;23.08;;;4.70;56.60;;;;;;5032820;28;20928;-71
2021/01/02 02:55:04;;;;;;;36.50;23.40;;;4.70;56.80;;;;;;5032594;28;20741;-71
2021/01/02 02:57:32;;;;;;;38.50;23.38;;;4.70;56.70;;;;;;5032663;28;20482;-72
2021/01/02 02:59:58;;;;;;;39.83;23.80;;;4.70;56.80;;;;;;5032333;28;20433;-72
2021/01/02 03:02:25;;;;;;;38.43;23.40;;;4.80;56.50;;;;;;5032327;28;20434;-72
2021/01/02 03:04:51;;;;;;;36.10;23.52;;;4.70;57.60;;;;;;5014861;28;20880;-72
2021/01/02 03:07:17;;;;;;;37.90;23.70;;;4.70;57.60;;;;;;5032260;28;20394;-73
2021/01/02 03:09:43;;;;;;;34.10;22.43;;;4.80;56.70;;;;;;5032289;28;20893;-72
2021/01/02 03:12:09;;;;;;;37.72;23.85;;;4.80;56.70;;;;;;5032206;28;20390;-72
2021/01/02 03:14:34;;;;;;;37.23;22.97;;;4.70;56.90;;;;;;5032475;28;20391;-72
2021/01/02 03:17:00;;;;;;;37.33;21.83;;;4.60;58.40;;;;;;5032365;28;20375;-71
2021/01/02 03:19:28;;;;;;;34.65;21.75;;;4.50;58.60;;;;;;5032039;28;20383;-71
2021/01/02 03:21:53;;;;;;;31.95;20.02;;;4.50;59.00;;;;;;5032260;28;20379;-72
2021/01/02 03:24:19;;;;;;;32.33;20.30;;;4.50;58.00;;;;;;5031941;28;20422;-72
2021/01/02 03:26:45;;;;;;;35.10;20.50;;;4.50;59.00;;;;;;5032351;28;20387;-72
2021/01/02 03:29:10;;;;;;;34.00;21.20;;;4.60;60.30;;;;;;5031772;28;20379;-72
2021/01/02 03:31:36;;;;;;;37.80;22.23;;;4.50;58.90;;;;;;5032270;28;20387;-72
2021/01/02 03:34:01;;;;;;;35.20;22.70;;;4.50;59.80;;;;;;5032098;28;20414;-72
2021/01/02 03:36:27;;;;;;;39.40;22.53;;;4.50;58.70;;;;;;5031897;28;20868;-73
2021/01/02 03:38:55;;;;;;;35.43;22.20;;;4.50;58.30;;;;;;5031759;28;20444;-71
2021/01/02 03:41:23;;;;;;;35.97;22.40;;;4.60;57.40;;;;;;5030935;28;20807;-72
2021/01/02 03:43:48;;;;;;;37.42;21.90;;;4.50;57.10;;;;;;5031984;28;20408;-72
2021/01/02 03:46:14;;;;;;;37.72;22.27;;;4.40;57.40;;;;;;5013817;28;20478;-72
2021/01/02 03:48:39;;;;;;;34.97;22.10;;;4.30;58.00;;;;;;5031528;28;20383;-73
2021/01/02 03:51:06;;;;;;;37.20;22.92;;;4.30;59.00;;;;;;5031430;28;20442;-73
2021/01/02 03:53:31;;;;;;;37.17;22.02;;;4.40;56.90;;;;;;5031650;28;20440;-73
2021/01/02 03:55:57;;;;;;;35.88;21.25;;;4.30;56.80;;;;;;5031570;28;20908;-72
2021/01/02 03:58:22;;;;;;;36.88;21.90;;;4.40;56.30;;;;;;5031356;28;20395;-72
2021/01/02 04:00:48;;;;;;;37.08;22.15;;;4.40;56.50;;;;;;5031311;28;20425;-72
2021/01/02 04:03:14;;;;;;;38.97;23.17;;;4.40;56.30;;;;;;5031029;28;20919;-72
2021/01/02 04:05:43;;;;;;;39.57;22.73;;;4.40;56.10;;;;;;5031440;28;20387;-71
2021/01/02 04:08:09;;;;;;;34.97;22.08;;;4.30;56.20;;;;;;5031378;28;20385;-71
2021/01/02 04:10:35;;;;;;;38.65;23.00;;;4.30;56.00;;;;;;5031027;28;20379;-72
2021/01/02 04:13:00;;;;;;;37.13;22.40;;;4.30;56.90;;;;;;5031341;28;20386;-73
2021/01/02 04:15:26;;;;;;;40.80;23.37;;;4.40;55.40;;;;;;5034937;28;20387;-72
2021/01/02 04:17:51;;;;;;;39.17;23.00;;;4.40;55.90;;;;;;5034850;28;20391;-72
2021/01/02 04:20:17;;;;;;;39.33;23.45;;;4.40;55.90;;;;;;5034313;28;20394;-73
2021/01/02 04:22:43;;;;;;;39.78;23.33;;;4.50;55.40;;;;;;5034897;28;20417;-72
2021/01/02 04:25:09;;;;;;;40.15;24.30;;;4.50;55.30;;;;;;5035074;28;20473;-73
2021/01/02 04:27:35;;;;;;;41.03;23.83;;;4.60;54.30;;;;;;5034743;28;20423;-72
2021/01/02 04:30:00;;;;;;;43.07;23.80;;;4.60;54.40;;;;;;5034138;28;20799;-73
2021/01/02 04:32:26;;;;;;;43.30;24.00;;;4.50;53.90;;;;;;5033941;28;20421;-73
2021/01/02 04:34:52;;;;;;;45.05;24.42;;;4.60;53.50;;;;;;5034787;28;20466;-72
2021/01/02 04:37:17;;;;;;;39.58;22.77;;;4.60;53.60;;;;;;5034219;28;20391;-71
2021/01/02 04:39:43;;;;;;;35.80;22.45;;;4.60;53.10;;;;;;5034274;28;20399;-71
2021/01/02 04:42:08;;;;;;;37.92;22.13;;;4.50;52.80;;;;;;5034007;28;20422;-72
2021/01/02 04:44:35;;;;;;;36.55;21.77;;;4.60;53.20;;;;;;5034813;28;20408;-72
2021/01/02 04:47:03;;;;;;;36.60;22.45;;;4.50;52.60;;;;;;5035699;28;20841;-71
2021/01/02 04:49:29;;;;;;;38.80;22.30;;;4.50;52.80;;;;;;5034591;28;20387;-73
2021/01/02 04:52:01;;;;;;;38.63;22.80;;;4.60;52.80;;;;;;5016285;28;20402;-74
2021/01/02 04:54:27;;;;;;;41.45;22.85;;;4.50;53.80;;;;;;5033743;28;20383;-72
2021/01/02 04:56:52;;;;;;;42.00;22.90;;;4.50;54.70;;;;;;5033787;28;20390;-72
2021/01/02 04:59:23;;;;;;;36.03;22.40;;;4.60;53.80;;;;;;5033721;28;20449;-73
2021/01/02 05:01:50;;;;;;;37.17;22.58;;;4.50;53.20;;;;;;5034186;28;20474;-72
2021/01/02 05:04:15;;;;;;;42.58;22.75;;;4.40;53.80;;;;;;5015693;28;20419;-72
2021/01/02 05:06:41;;;;;;;41.70;22.83;;;4.40;54.10;;;;;;5034153;28;20381;-73
2021/01/02 05:09:07;;;;;;;44.88;23.48;;;4.40;54.10;;;;;;5034021;28;20413;-72
2021/01/02 05:11:39;;;;;;;39.28;22.42;;;4.50;53.60;;;;;;5034150;28;20409;-72
2021/01/02 05:14:06;;;;;;;40.15;23.55;;;4.50;53.10;;;;;;5034540;28;20399;-72
2021/01/02 05:16:41;;;;;;;40.08;22.75;;;4.40;53.30;;;;;;5033507;28;20445;-72
2021/01/02 05:19:12;;;;;;;39.20;23.40;;;4.40;53.90;;;;;;5033695;28;20470;-72
2021/01/02 05:21:46;;;;;;;43.72;23.13;;;4.40;54.00;;;;;;5033768;28;20394;-72
2021/01/02 05:24:20;;;;;;;42.83;24.17;;;4.40;54.00;;;;;;5034538;28;20760;-72
2021/01/02 05:26:52;;;;;;;43.42;23.85;;;4.50;53.40;;;;;;5035160;28;20971;-71
2021/01/02 05:29:29;;;;;;;43.05;24.45;;;4.40;53.30;;;;;;5034207;28;20390;-71
2021/01/02 05:31:56;;;;;;;45.13;25.48;;;4.50;53.20;;;;;;5034024;28;20471;-73
2021/01/02 05:34:24;;;;;;;44.10;24.90;;;4.40;53.60;;;;;;5034166;28;20761;-73
2021/01/02 05:37:07;;;;;;;43.03;24.48;;;4.50;53.70;;;;;;5033943;28;20395;-73
2021/01/02 05:39:49;;;;;;;41.03;23.90;;;4.60;53.70;;;;;;5013897;28;20393;-72
2021/01/02 05:42:15;;;;;;;44.35;25.00;;;4.50;54.10;;;;;;5014353;28;20527;-73
2021/01/02 05:44:41;;;;;;;42.20;24.85;;;4.50;54.70;;;;;;5014168;28;20391;-72
2021/01/02 05:47:11;;;;;;;43.65;24.65;;;4.50;54.80;;;;;;5014713;28;20412;-73
2021/01/02 05:49:47;;;;;;;41.13;24.08;;;4.40;55.20;;;;;;5014120;28;20401;-71
2021/01/02 05:52:14;;;;;;;47.55;26.17;;;4.40;55.30;;;;;;5014068;28;20483;-72
2021/01/02 05:54:51;;;;;;;46.25;25.10;;;4.40;55.90;;;;;;5014244;28;20385;-72
2021/01/02 05:57:27;;;;;;;41.78;24.42;;;4.30;56.50;;;;;;5013834;28;20746;-71
2021/01/02 05:59:55;;;;;;;47.38;25.23;;;4.40;56.60;;;;;;5013870;28;20393;-73
2021/01/02 06:02:24;;;;;;;46.58;25.42;;;4.50;56.20;;;;;;5014528;28;20388;-72
2021/01/02 06:05:02;;;;;;;44.95;24.85;;;4.50;55.60;;;;;;5015308;28;20380;-72
2021/01/02 06:07:29;;;;;;;45.58;25.13;;;4.50;54.90;;;;;;5017711;28;20381;-72
2021/01/02 06:09:55;;;;;;;41.85;23.85;;;4.50;54.90;;;;;;5016725;28;20392;-72
2021/01/02 06:12:32;;;;;;;49.53;24.63;;;4.50;54.40;;;;;;5001010;28;20467;-73
2021/01/02 06:15:06;;;;;;;44.25;24.60;;;4.50;54.40;;;;;;5037278;28;20379;-72
2021/01/02 06:17:33;;;;;;;43.92;23.95;;;4.60;53.10;;;;;;5037187;28;20434;-72
2021/01/02 06:20:23;;;;;;;45.50;25.30;;;4.60;53.00;;;;;;5036716;28;20379;-71
2021/01/02 06:22:50;;;;;;;47.58;24.40;;;4.50;53.00;;;;;;5018212;28;20414;-72
2021/01/02 06:25:15;;;;;;;51.03;25.52;;;4.60;52.50;;;;;;5035836;28;20383;-72
2021/01/02 06:27:43;;;;;;;40.53;23.73;;;4.60;52.90;;;;;;5035589;28;20425;-72
2021/01/02 06:30:14;;;;;;;47.53;25.20;;;4.50;51.90;;;;;;5035666;28;20387;-73
2021/01/02 06:32:44;;;;;;;49.58;26.65;;;4.50;52.80;;;;;;5036248;28;20389;-71
2021/01/02 06:35:09;;;;;;;46.00;26.25;;;4.40;53.60;;;;;;5035763;28;20387;-72
2021/01/02 06:37:47;;;;;;;41.60;24.10;;;4.50;53.10;;;;;;5036181;28;20393;-74
2021/01/02 06:40:30;;;;;;;50.13;25.93;;;4.50;52.50;;;;;;5035049;28;20474;-73
2021/01/02 06:43:01;;;;;;;45.28;24.80;;;4.50;52.20;;;;;;5035571;28;20817;-74
2021/01/02 06:45:35;;;;;;;46.90;24.48;;;4.50;52.50;;;;;;5035992;28;20477;-73
2021/01/02 06:48:13;;;;;;;45.15;24.30;;;4.50;52.20;;;;;;5035775;28;20411;-73
2021/01/02 06:50:39;;;;;;;43.63;25.27;;;4.60;52.00;;;;;;5034997;28;20383;-72
2021/01/02 06:53:26;;;;;;;42.15;24.75;;;4.60;50.60;;;;;;5035298;28;20772;-73
2021/01/02 06:56:08;;;;;;;45.00;24.77;;;4.60;51.00;;;;;;5035233;28;20911;-74
2021/01/02 06:58:46;;;;;;;41.10;24.30;;;4.60;50.90;;;;;;5032518;28;20395;-73
2021/01/02 07:01:18;;;;;;;48.15;25.83;;;4.50;51.70;;;;;;5032992;28;20386;-73
2021/01/02 07:03:48;;;;;;;47.88;26.88;;;4.50;52.30;;;;;;5033081;28;20414;-73
2021/01/02 07:06:21;;;;;;;51.00;25.48;;;4.50;52.70;;;;;;5014695;28;20466;-73
2021/01/02 07:08:48;;;;;;;43.35;24.80;;;4.50;52.70;;;;;;5032574;28;20387;-73
2021/01/02 07:11:35;;;;;;;42.30;24.20;;;4.40;52.40;;;;;;5032455;28;20387;-73
2021/01/02 07:16:43;;;;;;;44.38;24.77;;;4.40;53.20;;;;;;5031816;28;20386;-72
2021/01/02 07:19:24;;;;;;;44.92;25.63;;;4.50;53.90;;;;;;5032280;28;20387;-73
2021/01/02 07:22:10;;;;;;;47.60;25.90;;;4.40;53.50;;;;;;5032396;28;20418;-72
2021/01/02 07:24:51;;;;;;;45.45;25.58;;;4.60;52.40;;;;;;5014617;28;20788;-73
2021/01/02 07:27:21;;;;;;;45.25;25.40;;;4.60;51.80;;;;;;5032539;28;20445;-74
2021/01/02 07:29:54;;;;;;;49.38;26.40;;;4.60;52.90;;;;;;5032112;28;20423;-72
2021/01/02 07:32:28;;;;;;;50.53;26.77;;;4.50;53.00;;;;;;5032101;28;20880;-73
2021/01/02 07:35:03;;;;;;;45.53;26.48;;;4.50;53.40;;;;;;5017009;28;20486;-73
2021/01/02 07:37:40;;;;;;;48.80;26.85;;;4.50;54.00;;;;;;5034913;28;20399;-72
2021/01/02 07:40:09;;;;;;;46.77;26.23;;;4.50;54.00;;;;;;5034333;28;20394;-73
2021/01/02 07:42:36;;;;;;;48.33;26.85;;;4.50;54.20;;;;;;5032419;28;20442;-72
2021/01/02 07:45:04;;;;;;;45.97;26.95;;;4.50;55.10;;;;;;5031717;28;20394;-73
2021/01/02 07:47:30;;;;;;;45.97;26.48;;;4.50;54.10;;;;;;5031571;28;20375;-72
2021/01/02 07:50:16;;;;;;;53.80;28.00;;;4.50;53.20;;;;;;5013611;28;20477;-73
2021/01/02 07:52:49;;;;;;;45.85;25.85;;;4.60;51.30;;;;;;5031660;28;20403;-74
2021/01/02 07:55:15;;;;;;;46.20;26.70;;;4.60;51.90;;;;;;5013758;28;20389;-72
2021/01/02 07:57:41;;;;;;;49.45;27.00;;;4.70;51.50;;;;;;5031517;28;20474;-73
2021/01/02 08:00:09;;;;;;;49.60;26.45;;;4.60;52.20;;;;;;5031178;28;20944;-72
2021/01/02 08:02:41;;;;;;;48.53;26.88;;;4.70;52.30;;;;;;5031263;28;20405;-73
2021/01/02 08:05:09;;;;;;;49.03;26.70;;;4.70;51.50;;;;;;5030852;28;20375;-73
2021/01/02 08:07:34;;;;;;;48.95;26.92;;;4.70;50.80;;;;;;5031288;28;20748;-73
2021/01/02 08:10:00;;;;;;;46.27;25.93;;;4.70;51.70;;;;;;5031046;28;20386;-73
2021/01/02 08:12:26;;;;;;;51.20;27.40;;;4.60;53.00;;;;;;5030999;28;20418;-73
2021/01/02 08:14:51;;;;;;;54.92;26.63;;;4.60;53.70;;;;;;5031135;28;20379;-73
2021/01/02 08:17:20;;;;;;;49.80;26.20;;;4.50;53.70;;;;;;5031444;28;20387;-73
2021/01/02 08:19:46;;;;;;;51.13;26.40;;;4.60;53.00;;;;;;5031628;28;20466;-74
2021/01/02 08:22:12;;;;;;;46.40;26.57;;;4.60;54.00;;;;;;5031552;28;20402;-73
2021/01/02 08:24:39;;;;;;;49.03;26.08;;;4.60;53.30;;;;;;5031498;28;20390;-72
2021/01/02 08:27:05;;;;;;;46.90;25.52;;;4.60;53.30;;;;;;5031374;28;20421;-72
2021/01/02 08:29:32;;;;;;;50.28;25.77;;;4.60;52.20;;;;;;5031493;28;20406;-72
2021/01/02 08:32:08;;;;;;;45.65;25.15;;;4.60;53.00;;;;;;5030969;28;20383;-73
2021/01/02 08:34:35;;;;;;;51.57;25.80;;;4.70;53.00;;;;;;5030901;28;20913;-72
2021/01/02 08:37:03;;;;;;;47.40;26.35;;;4.70;53.00;;;;;;5030877;28;20425;-72
2021/01/02 08:39:29;;;;;;;48.60;26.27;;;4.80;52.50;;;;;;5030691;28;20866;-74
2021/01/02 08:41:57;;;;;;;50.08;26.05;;;4.80;52.20;;;;;;5031275;28;20525;-74
2021/01/02 08:44:37;;;;;;;46.42;26.30;;;4.80;51.80;;;;;;5031265;28;20836;-73
2021/01/02 08:47:04;;;;;;;47.55;26.20;;;4.90;51.50;;;;;;5030688;28;20383;-73
2021/01/02 08:49:41;;;;;;;50.65;26.00;;;5.00;51.20;;;;;;5032431;28;20463;-73
2021/01/02 08:52:17;;;;;;;50.90;27.98;;;5.20;48.80;;;;;;5033188;28;20449;-73
2021/01/02 08:54:42;;;;;;;47.88;26.50;;;5.10;49.50;;;;;;5033319;28;20391;-74
2021/01/02 08:57:34;;;;;;;51.28;28.00;;;5.10;49.60;;;;;;5033760;28;20803;-72
2021/01/02 09:00:10;;;;;;;50.75;26.70;;;5.10;49.10;;;;;;5033503;28;20726;-71
2021/01/02 09:02:38;;;;;;;48.78;27.05;;;5.20;47.70;;;;;;5033324;28;20923;-72
2021/01/02 09:05:05;;;;;;;51.80;27.15;;;5.20;47.30;;;;;;5033523;28;20411;-72
2021/01/02 09:07:31;;;;;;;46.83;26.13;;;5.20;48.20;;;;;;5033305;28;20386;-73
2021/01/02 09:10:23;;;;;;;43.63;25.80;;;5.20;48.80;;;;;;5033283;28;20386;-73
2021/01/02 09:13:08;;;;;;;43.45;25.50;;;5.40;46.20;;;;;;5033859;28;20468;-73
2021/01/02 09:15:58;;;;;;;46.90;25.80;;;5.40;46.10;;;;;;5016092;28;20394;-72
2021/01/02 09:18:23;;;;;;;46.25;26.63;;;5.50;45.80;;;;;;5033332;28;20387;-73
2021/01/02 09:20:49;;;;;;;62.10;28.63;;;5.50;46.50;;;;;;5015038;28;20754;-73
2021/01/02 09:23:27;;;;;;;44.72;26.00;;;5.50;46.30;;;;;;5015031;28;20438;-73
2021/01/02 09:25:53;;;;;;;46.78;26.27;;;5.50;46.10;;;;;;5032616;28;20391;-74
2021/01/02 09:28:18;;;;;;;46.42;25.70;;;5.40;46.10;;;;;;5033073;28;20387;-72
2021/01/02 09:30:45;;;;;;;49.47;25.95;;;5.40;46.80;;;;;;5032869;28;20441;-72
2021/01/02 09:33:12;;;;;;;52.05;26.73;;;5.40;47.20;;;;;;5033176;28;20848;-72
2021/01/02 09:35:38;;;;;;;46.70;26.23;;;5.50;46.10;;;;;;5033168;28;20383;-73
2021/01/02 09:38:04;;;;;;;51.55;26.42;;;5.50;46.50;;;;;;5032989;28;20410;-74
2021/01/02 09:40:31;;;;;;;49.42;26.13;;;5.50;46.10;;;;;;5035297;28;20426;-73
2021/01/02 09:42:57;;;;;;;54.90;28.10;;;5.50;46.00;;;;;;5036419;28;20407;-74
2021/01/02 09:45:23;;;;;;;47.22;25.55;;;5.60;46.30;;;;;;5035799;28;20389;-73
2021/01/02 09:47:48;;;;;;;48.80;27.30;;;5.60;46.80;;;;;;5036078;28;20391;-74
2021/01/02 09:50:14;;;;;;;48.13;26.57;;;5.60;46.60;;;;;;5035922;28;20890;-75
2021/01/02 09:52:39;;;;;;;46.43;26.47;;;5.70;46.10;;;;;;5036598;28;20403;-72
2021/01/02 09:55:05;;;;;;;49.53;26.00;;;5.70;45.50;;;;;;5036294;28;20391;-73
2021/01/02 09:57:31;;;;;;;48.42;26.50;;;5.80;45.50;;;;;;5036596;28;20421;-73
2021/01/02 09:59:56;;;;;;;48.28;25.85;;;5.80;45.90;;;;;;5035751;28;20884;-73
2021/01/02 10:02:22;;;;;;;43.33;24.70;;;5.70;45.70;;;;;;5037690;28;20399;-72
2021/01/02 10:04:49;;;;;;;45.33;25.98;;;5.80;45.10;;;;;;5037289;28;20379;-72
2021/01/02 10:07:16;;;;;;;52.20;27.52;;;5.90;44.50;;;;;;5036218;28;20398;-73
2021/01/02 10:09:43;;;;;;;49.15;26.52;;;5.90;44.70;;;;;;5036427;28;20872;-73
2021/01/02 10:12:09;;;;;;;53.00;27.85;;;5.90;44.80;;;;;;5036452;28;20426;-73
2021/01/02 10:14:36;;;;;;;52.10;28.77;;;5.70;46.30;;;;;;5018539;28;20399;-73
2021/01/02 10:17:03;;;;;;;51.20;27.52;;;5.70;46.70;;;;;;5036912;28;20407;-73
2021/01/02 10:19:30;;;;;;;53.13;29.40;;;5.80;46.70;;;;;;5018702;28;20513;-73
2021/01/02 10:21:57;;;;;;;56.22;28.73;;;5.60;46.50;;;;;;5036572;28;20743;-73
2021/01/02 10:24:22;;;;;;;56.40;28.50;;;5.70;46.80;;;;;;5035461;28;20415;-73
2021/01/02 10:26:48;;;;;;;52.90;29.07;;;5.70;47.10;;;;;;5035502;28;20453;-73
2021/01/02 10:29:14;;;;;;;55.30;27.73;;;5.70;47.50;;;;;;5034778;28;20389;-73
2021/01/02 10:31:39;;;;;;;50.97;29.07;;;5.60;46.90;;;;;;5035609;28;20387;-74
2021/01/02 10:34:05;;;;;;;55.23;29.13;;;5.60;47.10;;;;;;5034986;28;20394;-73
2021/01/02 10:36:31;;;;;;;55.47;28.60;;;5.60;47.40;;;;;;5035166;28;20398;-74
2021/01/02 10:38:56;;;;;;;50.45;25.92;;;5.70;47.60;;;;;;5016896;28;20737;-73
2021/01/02 10:41:22;;;;;;;52.17;26.60;;;5.70;47.20;;;;;;5034978;28;20477;-73
2021/01/02 10:43:48;;;;;;;49.70;26.57;;;5.80;47.50;;;;;;5034021;28;20410;-75
2021/01/02 10:46:14;;;;;;;51.88;27.77;;;5.90;46.10;;;;;;5033002;28;20425;-73
2021/01/02 10:48:40;;;;;;;58.55;28.60;;;5.90;44.90;;;;;;5032409;28;20379;-72
2021/01/02 10:51:13;;;;;;;53.08;27.90;;;6.00;43.40;;;;;;5032699;28;20849;-72
2021/01/02 10:53:39;;;;;;;52.42;27.63;;;6.10;44.20;;;;;;5032694;28;20435;-74
2021/01/02 10:56:11;;;;;;;50.53;27.00;;;6.20;43.00;;;;;;5032871;28;20426;-72
2021/01/02 10:58:37;;;;;;;52.08;27.60;;;6.30;41.70;;;;;;5014975;28;20397;-74
2021/01/02 11:01:05;;;;;;;51.42;28.02;;;6.40;41.30;;;;;;5032526;28;20395;-74
2021/01/02 11:03:31;;;;;;;50.20;29.40;;;6.50;41.60;;;;;;5033060;28;20461;-72
2021/01/02 11:05:58;;;;;;;54.13;29.48;;;6.50;40.20;;;;;;5032609;28;20380;-73
2021/01/02 11:08:23;;;;;;;47.95;26.60;;;6.50;41.10;;;;;;5032733;28;20908;-74
2021/01/02 11:10:49;;;;;;;49.93;27.47;;;6.60;40.30;;;;;;5032295;28;20394;-74
2021/01/02 11:13:14;;;;;;;49.43;27.97;;;6.60;39.80;;;;;;5032109;28;20399;-72
2021/01/02 11:15:40;;;;;;;52.13;27.63;;;6.70;38.90;;;;;;5032204;28;20398;-73
2021/01/02 11:18:05;;;;;;;56.53;30.50;;;6.60;40.00;;;;;;5014470;28;20391;-74
2021/01/02 11:20:31;;;;;;;52.50;27.67;;;6.60;40.50;;;;;;5013996;28;20403;-74
2021/01/02 11:22:57;;;;;;;51.42;26.65;;;6.50;40.40;;;;;;5034300;28;20460;-73
2021/01/02 11:25:22;;;;;;;51.55;27.63;;;6.60;40.30;;;;;;5036277;28;20456;-73
2021/01/02 11:27:48;;;;;;;50.53;26.90;;;6.50;41.10;;;;;;5036829;28;20590;-72
2021/01/02 11:30:14;;;;;;;49.67;26.20;;;6.50;41.20;;;;;;5035708;28;20510;-72
2021/01/02 11:32:41;;;;;;;59.67;29.00;;;6.40;41.30;;;;;;5034805;28;20402;-73
2021/01/02 11:35:08;;;;;;;53.83;28.85;;;6.40;42.40;;;;;;5034880;28;20379;-72
2021/01/02 11:37:33;;;;;;;58.15;29.80;;;6.40;42.80;;;;;;5034405;28;20490;-73
2021/01/02 11:39:59;;;;;;;50.40;26.70;;;6.60;43.20;;;;;;5034210;28;20821;-72
2021/01/02 11:42:24;;;;;;;55.30;27.60;;;6.70;41.70;;;;;;5034006;28;20391;-72
2021/01/02 11:44:50;;;;;;;53.67;29.10;;;6.60;41.60;;;;;;5034531;28;20800;-73
2021/01/02 11:47:16;;;;;;;55.53;27.87;;;6.80;40.70;;;;;;5034289;28;20415;-72
2021/01/02 11:49:41;;;;;;;53.28;28.75;;;6.70;40.70;;;;;;5033988;28;20409;-72
2021/01/02 11:52:08;;;;;;;55.33;27.60;;;6.50;41.80;;;;;;5033550;28;20403;-72
2021/01/02 11:54:35;;;;;;;53.47;27.30;;;6.70;41.50;;;;;;5033607;28;20391;-74
2021/01/02 11:57:02;;;;;;;52.08;28.65;;;6.70;41.70;;;;;;5031857;28;20462;-73
2021/01/02 11:59:28;;;;;;;63.65;30.75;;;6.60;43.00;;;;;;5030964;28;20390;-73
2021/01/02 12:01:57;;;;;;;50.20;27.20;;;6.60;43.50;;;;;;5030782;28;20466;-73
2021/01/02 12:04:25;;;;;;;55.58;28.38;;;6.50;44.00;;;;;;5031285;28;20403;-75
2021/01/02 12:06:51;;;;;;;60.78;31.00;;;6.50;44.90;;;;;;5031625;28;20383;-73
2021/01/02 12:09:18;;;;;;;59.15;30.65;;;6.60;43.10;;;;;;5030798;28;20533;-73
2021/01/02 12:11:45;;;;;;;62.42;31.60;;;6.70;43.00;;;;;;5030993;28;20880;-74
2021/01/02 12:14:13;;;;;;;61.47;31.15;;;6.70;43.50;;;;;;5030971;28;20387;-73
2021/01/02 12:16:41;;;;;;;73.07;34.90;;;6.60;44.60;;;;;;5031274;28;20486;-73
2021/01/02 12:19:10;;;;;;;59.50;30.50;;;6.60;44.50;;;;;;5030787;28;20405;-72
2021/01/02 12:21:36;;;;;;;60.35;31.45;;;6.70;44.60;;;;;;5031016;28;20375;-74
2021/01/02 12:24:01;;;;;;;62.57;32.17;;;6.80;44.90;;;;;;5030960;28;20406;-74
2021/01/02 12:26:27;;;;;;;59.83;31.53;;;6.80;44.20;;;;;;5030947;28;20379;-74
2021/01/02 12:28:53;;;;;;;54.42;28.65;;;6.90;43.70;;;;;;5030729;28;20383;-74
2021/01/02 12:31:22;;;;;;;54.28;29.48;;;7.10;42.90;;;;;;5030797;28;20796;-73
2021/01/02 12:33:48;;;;;;;58.63;29.80;;;7.30;41.60;;;;;;5030636;28;20788;-73
2021/01/02 12:36:15;;;;;;;57.10;29.40;;;7.30;41.50;;;;;;5030314;28;20383;-73
2021/01/02 12:38:41;;;;;;;58.30;30.10;;;7.40;40.70;;;;;;5012757;28;20406;-73
2021/01/02 12:41:15;;;;;;;65.77;33.43;;;7.40;39.70;;;;;;5030303;28;20422;-72
2021/01/02 12:43:42;;;;;;;62.05;30.98;;;7.30;40.50;;;;;;5030507;28;20415;-73
2021/01/02 12:46:09;;;;;;;56.40;30.10;;;7.20;40.00;;;;;;5030565;28;20384;-73
2021/01/02 12:48:35;;;;;;;56.00;28.67;;;7.20;40.40;;;;;;5030959;28;20387;-73
2021/01/02 12:51:02;;;;;;;56.25;29.77;;;7.20;40.20;;;;;;5030622;28;20394;-72
2021/01/02 12:53:27;;;;;;;56.35;29.17;;;7.10;40.50;;;;;;5031183;28;20399;-75